Time;durP1;ratioP1;P1;durP2;ratioP2;P2;SDS_P1;SDS_P2;PMS_P1;PMS_P2;Temp;Humidity;BMP_temperature;BMP_pressure;BME280_temperature;BME280_humidity;BME280_pressure;Samples;Min_cycle;Max_cycle;Signal;HPM_P1;HPM_P2
2022/08/29 00:00:55;;;;;;;5.23;4.73;;;18.80;85.30;;;;;;5028227;28;20435;-68
2022/08/29 00:03:21;;;;;;;4.83;4.47;;;18.70;85.80;;;;;;5049021;28;20213;-67
2022/08/29 00:05:47;;;;;;;4.87;4.57;;;18.70;86.20;;;;;;5048579;28;20265;-67
2022/08/29 00:08:13;;;;;;;5.10;4.70;;;18.70;85.90;;;;;;5046605;28;20190;-72
2022/08/29 00:10:39;;;;;;;5.47;5.07;;;18.60;87.20;;;;;;5050512;28;20202;-67
2022/08/29 00:13:06;;;;;;;5.17;4.77;;;18.50;87.20;;;;;;5037638;28;20779;-67
2022/08/29 00:15:33;;;;;;;5.50;5.10;;;18.50;87.40;;;;;;5042810;28;20762;-67
2022/08/29 00:17:59;;;;;;;5.67;4.87;;;18.40;87.80;;;;;;5054037;28;20466;-67
2022/08/29 00:20:27;;;;;;;5.00;4.50;;;18.40;88.30;;;;;;5053077;28;20483;-67
2022/08/29 00:22:53;;;;;;;5.77;5.17;;;18.40;88.00;;;;;;5042771;28;20425;-70
2022/08/29 00:25:20;;;;;;;5.70;5.20;;;18.40;88.30;;;;;;5049428;28;20492;-67
2022/08/29 00:27:45;;;;;;;5.10;4.63;;;18.40;88.50;;;;;;5046931;28;20424;-67
2022/08/29 00:30:12;;;;;;;5.27;4.70;;;18.40;88.20;;;;;;5041385;28;20824;-67
2022/08/29 00:32:39;;;;;;;4.97;4.60;;;18.40;88.30;;;;;;5041656;28;20174;-67
2022/08/29 00:35:26;;;;;;;5.20;4.77;;;18.40;89.00;;;;;;5042271;28;20416;-67
2022/08/29 00:37:53;;;;;;;4.37;4.07;;;18.40;88.60;;;;;;5040936;28;20484;-67
2022/08/29 00:40:41;;;;;;;5.30;4.90;;;18.30;88.90;;;;;;5042613;28;20425;-67
2022/08/29 00:43:08;;;;;;;4.43;4.03;;;18.30;90.20;;;;;;5043045;28;20421;-67
2022/08/29 00:45:37;;;;;;;5.10;4.70;;;18.20;89.90;;;;;;5040512;28;20424;-67
2022/08/29 00:48:13;;;;;;;4.80;4.40;;;18.20;90.10;;;;;;5043312;28;20488;-68
2022/08/29 00:50:50;;;;;;;5.03;4.53;;;18.20;90.30;;;;;;5038701;28;20479;-67
2022/08/29 00:53:21;;;;;;;4.50;4.10;;;18.20;90.50;;;;;;5042541;28;20463;-72
2022/08/29 00:55:48;;;;;;;4.80;4.50;;;18.20;90.50;;;;;;5022994;28;20421;-67
2022/08/29 00:58:20;;;;;;;4.60;4.30;;;18.20;90.60;;;;;;5041669;28;20474;-71
2022/08/29 01:00:47;;;;;;;4.50;4.20;;;18.20;90.60;;;;;;5039655;28;20460;-69
2022/08/29 01:03:13;;;;;;;4.40;4.17;;;18.20;90.80;;;;;;5042930;28;20781;-69
2022/08/29 01:05:39;;;;;;;5.27;4.87;;;18.20;91.00;;;;;;5039581;28;20458;-67
2022/08/29 01:08:05;;;;;;;5.37;4.77;;;18.10;90.80;;;;;;5040204;28;20660;-67
2022/08/29 01:13:17;;;;;;;4.37;4.00;;;18.00;90.90;;;;;;5041394;28;20433;-72
2022/08/29 01:15:45;;;;;;;4.70;4.30;;;18.00;91.00;;;;;;5041654;28;20968;-67
2022/08/29 01:18:14;;;;;;;4.30;4.00;;;18.00;90.90;;;;;;5039649;28;20304;-68
2022/08/29 01:20:51;;;;;;;5.10;4.60;;;18.00;91.30;;;;;;5031953;28;20448;-67
2022/08/29 01:23:48;;;;;;;4.57;4.23;;;18.00;91.40;;;;;;5042305;28;20487;-72
2022/08/29 01:26:14;;;;;;;4.60;4.30;;;18.00;91.40;;;;;;5040299;28;20415;-70
2022/08/29 01:28:49;;;;;;;4.77;4.37;;;18.00;91.80;;;;;;5037251;28;20425;-68
2022/08/29 01:31:24;;;;;;;5.13;4.73;;;18.00;91.40;;;;;;5038828;28;20564;-72
2022/08/29 01:33:55;;;;;;;4.73;4.27;;;18.00;91.30;;;;;;5033433;28;20827;-67
2022/08/29 01:36:40;;;;;;;5.40;4.90;;;17.90;91.50;;;;;;5032441;28;20398;-70
2022/08/29 01:39:07;;;;;;;4.67;4.20;;;17.90;91.80;;;;;;5036625;28;20435;-67
2022/08/29 01:41:33;;;;;;;4.70;4.30;;;17.80;91.80;;;;;;5033935;28;20500;-67
2022/08/29 01:44:00;;;;;;;5.03;4.63;;;17.80;91.90;;;;;;5052318;28;20458;-67
2022/08/29 01:46:32;;;;;;;5.00;4.70;;;17.80;92.00;;;;;;5032988;28;20429;-67
2022/08/29 01:49:02;;;;;;;5.00;4.60;;;17.80;92.30;;;;;;5050515;28;20543;-67
2022/08/29 01:51:28;;;;;;;4.90;4.50;;;17.80;92.30;;;;;;5041860;28;20906;-67
2022/08/29 01:53:54;;;;;;;4.67;4.27;;;17.80;92.40;;;;;;5043887;28;20483;-67
2022/08/29 01:56:23;;;;;;;5.50;4.27;;;17.70;91.80;;;;;;5032757;28;20262;-68
2022/08/29 01:58:50;;;;;;;5.10;4.70;;;17.70;91.80;;;;;;5039627;28;20436;-67
2022/08/29 02:01:20;;;;;;;4.77;4.37;;;17.60;92.20;;;;;;5017721;28;20425;-73
2022/08/29 02:03:46;;;;;;;5.67;5.17;;;17.50;92.10;;;;;;5032526;28;20547;-67
2022/08/29 02:06:12;;;;;;;4.57;4.27;;;17.50;92.60;;;;;;5032871;28;20962;-67
2022/08/29 02:08:40;;;;;;;5.07;4.77;;;17.50;92.90;;;;;;5040091;28;20173;-67
2022/08/29 02:11:09;;;;;;;7.00;5.57;;;17.50;92.80;;;;;;5052310;28;20943;-67
2022/08/29 02:13:40;;;;;;;5.03;4.70;;;17.50;92.80;;;;;;5051742;28;20412;-68
2022/08/29 02:16:06;;;;;;;5.07;4.57;;;17.50;93.10;;;;;;5052621;28;20400;-67
2022/08/29 02:18:32;;;;;;;4.60;4.30;;;17.50;93.10;;;;;;5051745;28;20415;-67
2022/08/29 02:20:58;;;;;;;6.20;4.47;;;17.50;93.10;;;;;;5041679;28;20900;-67
2022/08/29 02:23:24;;;;;;;4.83;4.43;;;17.50;92.90;;;;;;5039781;28;20229;-67
2022/08/29 02:25:50;;;;;;;5.00;4.60;;;17.40;93.00;;;;;;5052439;28;20412;-67
2022/08/29 02:28:17;;;;;;;4.77;4.37;;;17.30;93.50;;;;;;5051479;28;20188;-67
2022/08/29 02:30:47;;;;;;;4.23;3.90;;;17.20;93.80;;;;;;5051423;28;20205;-67
2022/08/29 02:33:14;;;;;;;4.50;4.20;;;17.20;93.60;;;;;;5035522;28;20425;-67
2022/08/29 02:35:40;;;;;;;4.90;4.60;;;17.20;93.80;;;;;;5050002;28;20616;-67
2022/08/29 02:38:06;;;;;;;4.63;4.23;;;17.20;93.70;;;;;;5042721;28;20437;-66
2022/08/29 02:40:32;;;;;;;6.97;4.90;;;17.20;93.50;;;;;;5046020;28;20446;-67
2022/08/29 02:42:59;;;;;;;6.07;5.47;;;17.20;93.80;;;;;;5040382;28;20174;-67
2022/08/29 02:45:25;;;;;;;5.00;4.60;;;17.20;93.80;;;;;;5048806;28;20465;-67
2022/08/29 02:47:52;;;;;;;5.20;4.80;;;17.10;93.60;;;;;;5042964;28;20425;-67
2022/08/29 02:50:18;;;;;;;4.97;4.23;;;17.10;93.70;;;;;;5033195;28;20514;-67
2022/08/29 02:52:44;;;;;;;6.63;5.10;;;17.10;94.00;;;;;;5050348;28;20523;-67
2022/08/29 02:55:14;;;;;;;5.97;5.37;;;17.10;94.30;;;;;;5051813;28;20408;-67
2022/08/29 02:57:41;;;;;;;5.03;4.63;;;17.10;94.20;;;;;;5044253;28;20429;-67
2022/08/29 03:00:11;;;;;;;4.93;4.53;;;17.10;93.90;;;;;;5032752;28;20417;-67
2022/08/29 03:02:37;;;;;;;4.90;4.50;;;17.10;94.20;;;;;;5044224;28;20520;-67
2022/08/29 03:05:05;;;;;;;4.60;4.30;;;17.10;94.40;;;;;;5038444;28;20544;-67
2022/08/29 03:07:30;;;;;;;4.83;4.50;;;17.10;94.00;;;;;;5039967;28;20448;-65
2022/08/29 03:09:56;;;;;;;5.20;4.70;;;17.10;93.90;;;;;;5038697;28;20471;-69
2022/08/29 03:12:22;;;;;;;5.63;5.13;;;17.10;93.80;;;;;;5049295;28;20271;-71
2022/08/29 03:14:48;;;;;;;5.03;4.60;;;17.00;94.20;;;;;;5046835;28;20215;-67
2022/08/29 03:17:14;;;;;;;5.57;5.03;;;17.00;94.40;;;;;;5046590;28;20440;-67
2022/08/29 03:19:40;;;;;;;4.93;4.50;;;17.00;94.30;;;;;;4999359;28;20590;-67
2022/08/29 03:22:06;;;;;;;6.20;5.23;;;17.00;94.30;;;;;;5050508;28;20548;-67
2022/08/29 03:24:34;;;;;;;5.07;4.60;;;17.00;94.50;;;;;;5050783;28;20260;-67
2022/08/29 03:27:00;;;;;;;4.87;4.37;;;16.90;94.50;;;;;;5051784;28;20411;-67
2022/08/29 03:29:26;;;;;;;5.30;4.80;;;17.00;95.00;;;;;;5050886;28;20408;-67
2022/08/29 03:31:57;;;;;;;4.90;4.50;;;16.90;94.40;;;;;;5017429;28;20419;-67
2022/08/29 03:34:24;;;;;;;4.60;4.30;;;16.90;94.60;;;;;;5042660;28;20432;-72
2022/08/29 03:36:50;;;;;;;4.83;4.43;;;16.90;94.80;;;;;;5051474;28;20462;-67
2022/08/29 03:39:15;;;;;;;5.33;4.70;;;16.90;94.80;;;;;;5051528;28;20800;-67
2022/08/29 03:41:41;;;;;;;5.87;5.03;;;16.90;94.90;;;;;;5050561;28;20445;-67
2022/08/29 03:44:07;;;;;;;5.77;5.37;;;16.90;94.60;;;;;;5051712;28;20207;-67
2022/08/29 03:46:35;;;;;;;5.57;5.27;;;16.80;94.60;;;;;;5050784;28;20412;-67
2022/08/29 03:49:00;;;;;;;4.87;4.47;;;16.80;94.90;;;;;;5051272;28;20988;-67
2022/08/29 03:51:26;;;;;;;5.47;4.97;;;16.70;94.70;;;;;;5048987;28;20562;-71
2022/08/29 03:53:53;;;;;;;5.27;4.77;;;16.80;95.00;;;;;;5051118;28;20444;-66
2022/08/29 03:56:19;;;;;;;4.87;4.47;;;16.70;95.00;;;;;;5051519;28;20185;-67
2022/08/29 03:58:46;;;;;;;4.30;4.00;;;16.70;95.10;;;;;;5053693;28;20875;-67
2022/08/29 04:01:12;;;;;;;4.47;4.07;;;16.80;95.20;;;;;;5053781;28;20432;-67
2022/08/29 04:03:38;;;;;;;4.50;4.10;;;16.80;95.10;;;;;;5054253;28;20424;-67
2022/08/29 04:06:04;;;;;;;6.57;5.73;;;16.80;95.20;;;;;;5055016;28;20405;-67
2022/08/29 04:08:30;;;;;;;4.93;4.30;;;16.80;95.00;;;;;;5054432;28;20174;-67
2022/08/29 04:10:56;;;;;;;7.40;7.00;;;16.80;94.60;;;;;;5049971;28;20468;-67
2022/08/29 04:13:21;;;;;;;5.33;4.20;;;16.80;94.90;;;;;;5044693;28;20542;-68
2022/08/29 04:15:47;;;;;;;4.37;3.50;;;16.80;94.70;;;;;;5036115;28;20661;-67
2022/08/29 04:18:13;;;;;;;6.00;5.40;;;16.70;94.70;;;;;;5054788;28;20181;-67
2022/08/29 04:20:43;;;;;;;5.03;4.63;;;16.70;95.00;;;;;;5054139;28;20571;-67
2022/08/29 04:23:12;;;;;;;6.00;5.00;;;16.70;95.00;;;;;;5054824;28;20191;-67
2022/08/29 04:25:39;;;;;;;4.90;4.50;;;16.70;95.00;;;;;;5053853;28;20416;-67
2022/08/29 04:28:07;;;;;;;8.50;6.60;;;16.70;95.00;;;;;;5036864;28;20780;-67
2022/08/29 04:30:35;;;;;;;5.50;5.00;;;16.60;95.00;;;;;;5052245;28;20567;-67
2022/08/29 04:33:01;;;;;;;5.37;4.37;;;16.70;95.20;;;;;;5046312;28;20946;-67
2022/08/29 04:35:27;;;;;;;6.30;4.87;;;16.70;95.30;;;;;;5033550;28;20428;-72
2022/08/29 04:37:53;;;;;;;5.37;4.93;;;16.70;94.90;;;;;;5053112;28;20185;-67
2022/08/29 04:40:20;;;;;;;6.17;5.53;;;16.50;95.10;;;;;;5054377;28;20944;-67
2022/08/29 04:42:46;;;;;;;5.47;4.97;;;16.20;95.80;;;;;;5052413;28;20185;-67
2022/08/29 04:45:13;;;;;;;7.60;6.97;;;16.10;96.20;;;;;;5051791;28;20554;-67
2022/08/29 04:47:41;;;;;;;7.00;5.87;;;16.20;96.60;;;;;;5020995;28;20272;-67
2022/08/29 04:50:11;;;;;;;8.57;7.97;;;16.20;96.10;;;;;;5044501;28;20491;-67
2022/08/29 04:52:37;;;;;;;7.20;6.60;;;16.30;96.20;;;;;;5053346;28;20550;-67
2022/08/29 04:55:04;;;;;;;7.73;6.33;;;16.30;96.00;;;;;;5047109;28;20427;-67
2022/08/29 04:57:31;;;;;;;7.67;7.17;;;16.30;95.50;;;;;;5041284;28;20424;-67
2022/08/29 04:59:58;;;;;;;7.70;6.47;;;16.40;95.50;;;;;;5041629;28;20435;-67
2022/08/29 05:02:24;;;;;;;5.90;5.20;;;16.40;95.50;;;;;;5054388;28;20418;-67
2022/08/29 05:04:55;;;;;;;5.73;5.30;;;16.50;95.20;;;;;;5014681;28;20767;-67
2022/08/29 05:07:24;;;;;;;6.87;4.10;;;16.30;95.20;;;;;;5033639;28;20400;-67
2022/08/29 05:09:57;;;;;;;4.60;4.20;;;16.40;95.50;;;;;;5032290;28;20453;-68
2022/08/29 05:12:24;;;;;;;6.53;4.23;;;16.40;95.60;;;;;;5039820;28;20485;-67
2022/08/29 05:14:51;;;;;;;7.60;5.20;;;16.40;95.50;;;;;;5033884;28;20420;-67
2022/08/29 05:17:17;;;;;;;5.00;4.30;;;16.50;95.50;;;;;;5052612;28;20415;-67
2022/08/29 05:19:43;;;;;;;4.80;4.40;;;16.50;95.60;;;;;;5033884;28;20487;-67
2022/08/29 05:22:16;;;;;;;6.60;6.10;;;16.50;95.70;;;;;;5040900;28;20459;-67
2022/08/29 05:24:43;;;;;;;5.40;5.00;;;16.50;95.60;;;;;;5034740;28;20273;-67
2022/08/29 05:27:14;;;;;;;5.30;4.80;;;16.50;95.70;;;;;;5053500;28;20419;-67
2022/08/29 05:29:42;;;;;;;6.60;6.10;;;16.50;95.40;;;;;;5040980;28;20507;-67
2022/08/29 05:32:10;;;;;;;9.53;5.23;;;16.50;95.40;;;;;;5030411;28;20840;-67
2022/08/29 05:34:37;;;;;;;13.40;7.40;;;16.30;95.20;;;;;;5052486;28;20851;-67
2022/08/29 05:37:06;;;;;;;7.90;7.10;;;16.10;95.90;;;;;;5053320;28;20500;-67
2022/08/29 05:39:33;;;;;;;9.63;7.30;;;16.10;96.60;;;;;;5048444;28;20520;-70
2022/08/29 05:41:59;;;;;;;7.37;6.20;;;16.10;96.50;;;;;;5016479;28;20442;-67
2022/08/29 05:44:27;;;;;;;8.03;6.60;;;16.20;96.60;;;;;;5033031;28;20436;-67
2022/08/29 05:46:53;;;;;;;8.53;6.47;;;16.20;96.60;;;;;;5032405;28;20421;-67
2022/08/29 05:49:20;;;;;;;13.20;7.57;;;16.30;96.60;;;;;;5034014;28;20476;-67
2022/08/29 05:51:46;;;;;;;8.17;7.30;;;16.40;96.10;;;;;;5051998;28;20459;-67
2022/08/29 05:54:13;;;;;;;8.27;7.47;;;16.40;96.20;;;;;;5052879;28;20454;-67
2022/08/29 05:56:39;;;;;;;10.20;7.37;;;16.50;96.60;;;;;;5050383;28;20428;-67
2022/08/29 05:59:04;;;;;;;8.40;7.17;;;16.60;97.20;;;;;;5047097;28;20449;-64
2022/08/29 06:01:32;;;;;;;10.27;7.03;;;16.80;97.20;;;;;;5041420;28;20865;-65
2022/08/29 06:03:59;;;;;;;8.33;7.30;;;17.00;95.50;;;;;;5038569;28;20175;-65
2022/08/29 06:06:26;;;;;;;18.50;7.20;;;17.00;94.90;;;;;;5058594;28;20448;-65
2022/08/29 06:08:53;;;;;;;7.47;6.50;;;17.00;94.70;;;;;;5064231;28;20930;-65
2022/08/29 06:11:23;;;;;;;7.43;6.10;;;16.90;94.80;;;;;;5053024;28;20614;-64
2022/08/29 06:13:49;;;;;;;6.63;5.73;;;16.90;95.00;;;;;;5052372;28;20418;-64
2022/08/29 06:16:17;;;;;;;11.00;6.00;;;16.90;95.40;;;;;;5035726;28;20404;-65
2022/08/29 06:18:43;;;;;;;6.97;6.13;;;16.80;95.00;;;;;;5054068;28;20941;-63
2022/08/29 06:21:10;;;;;;;6.87;6.07;;;16.80;95.50;;;;;;5041900;28;20782;-63
2022/08/29 06:23:37;;;;;;;8.87;7.90;;;16.80;95.60;;;;;;5052275;28;20416;-63
2022/08/29 06:26:04;;;;;;;7.33;6.40;;;16.70;95.50;;;;;;5053033;28;20423;-63
2022/08/29 06:28:32;;;;;;;7.70;7.00;;;16.60;95.70;;;;;;5052758;28;20412;-63
2022/08/29 06:31:06;;;;;;;8.40;6.40;;;16.40;96.30;;;;;;5049850;28;20552;-63
2022/08/29 06:33:32;;;;;;;7.80;7.13;;;16.40;96.80;;;;;;5032312;28;20436;-63
2022/08/29 06:35:58;;;;;;;9.10;7.33;;;16.30;96.80;;;;;;5032596;28;20513;-63
2022/08/29 06:38:24;;;;;;;7.83;7.03;;;16.30;97.10;;;;;;5050895;28;20986;-65
2022/08/29 06:40:50;;;;;;;8.67;7.83;;;16.30;97.00;;;;;;5047104;28;20181;-63
2022/08/29 06:43:15;;;;;;;7.70;6.90;;;16.30;97.50;;;;;;5032597;28;20627;-63
2022/08/29 06:45:42;;;;;;;7.37;6.50;;;16.30;97.80;;;;;;5032492;28;20204;-63
2022/08/29 06:48:08;;;;;;;7.60;6.83;;;16.40;97.80;;;;;;5032569;28;20261;-63
2022/08/29 06:50:38;;;;;;;8.00;7.20;;;16.40;97.30;;;;;;5032196;28;20575;-63
2022/08/29 06:53:05;;;;;;;6.80;6.10;;;16.40;97.40;;;;;;5035007;28;20785;-63
2022/08/29 06:55:32;;;;;;;7.87;6.40;;;16.40;97.70;;;;;;5055036;28;20435;-62
2022/08/29 06:57:58;;;;;;;7.50;6.13;;;16.50;97.70;;;;;;5072748;28;20433;-63
2022/08/29 07:00:24;;;;;;;7.30;6.60;;;16.60;98.00;;;;;;5072418;28;20585;-63
2022/08/29 07:02:51;;;;;;;7.47;6.87;;;16.70;98.20;;;;;;5072130;28;20559;-63
2022/08/29 07:05:17;;;;;;;7.37;6.47;;;16.70;97.90;;;;;;4990834;28;20175;-63
2022/08/29 07:07:43;;;;;;;8.47;7.40;;;16.80;97.80;;;;;;4989650;28;20840;-64
2022/08/29 07:10:11;;;;;;;8.07;6.47;;;16.80;97.40;;;;;;4970025;28;20775;-63
2022/08/29 07:12:37;;;;;;;7.40;6.43;;;16.90;97.50;;;;;;4970806;28;20172;-63
2022/08/29 07:15:04;;;;;;;8.10;7.30;;;17.00;97.60;;;;;;4968411;28;21017;-63
2022/08/29 07:17:30;;;;;;;8.70;6.53;;;17.00;97.20;;;;;;4971231;28;20420;-64
2022/08/29 07:19:55;;;;;;;9.10;7.60;;;17.10;97.40;;;;;;4970178;28;20912;-65
2022/08/29 07:22:21;;;;;;;8.73;5.83;;;17.20;97.60;;;;;;4971125;28;20185;-65
2022/08/29 07:24:47;;;;;;;7.30;6.70;;;17.20;97.50;;;;;;4916776;29;20198;-65
2022/08/29 07:27:14;;;;;;;9.53;6.17;;;17.30;97.60;;;;;;4914333;29;20426;-65
2022/08/29 07:29:40;;;;;;;6.30;5.73;;;17.40;97.30;;;;;;4913128;29;20190;-65
2022/08/29 07:32:06;;;;;;;6.60;6.10;;;17.50;97.10;;;;;;4914169;29;20457;-65
2022/08/29 07:34:32;;;;;;;7.40;6.90;;;17.50;97.00;;;;;;4922311;29;20433;-65
2022/08/29 07:36:58;;;;;;;8.30;7.47;;;17.60;97.00;;;;;;4973251;28;20904;-65
2022/08/29 07:39:24;;;;;;;11.40;7.67;;;17.70;97.60;;;;;;4974721;28;20459;-63
2022/08/29 07:41:50;;;;;;;9.33;7.90;;;17.80;97.50;;;;;;4976368;28;20512;-63
2022/08/29 07:44:17;;;;;;;9.00;8.20;;;17.80;97.10;;;;;;4991860;28;20207;-63
2022/08/29 07:46:44;;;;;;;6.87;6.27;;;17.90;96.70;;;;;;4992281;28;20517;-63
2022/08/29 07:49:11;;;;;;;7.37;6.67;;;17.90;96.00;;;;;;4978974;28;20439;-66
2022/08/29 07:51:38;;;;;;;7.10;6.50;;;17.90;96.00;;;;;;4991409;28;20489;-65
2022/08/29 07:54:06;;;;;;;9.00;6.63;;;17.90;96.10;;;;;;5000974;28;20442;-63
2022/08/29 07:56:38;;;;;;;7.57;6.20;;;18.00;96.40;;;;;;5048657;28;20934;-62
2022/08/29 07:59:05;;;;;;;6.17;5.53;;;18.10;96.20;;;;;;5061247;28;20435;-62
2022/08/29 08:01:31;;;;;;;5.93;5.33;;;18.20;96.00;;;;;;5055045;28;20849;-62
2022/08/29 08:03:57;;;;;;;8.00;5.53;;;17.90;96.00;;;;;;5054292;28;20436;-62
2022/08/29 08:06:24;;;;;;;8.30;5.90;;;18.10;96.20;;;;;;5054999;28;20176;-62
2022/08/29 08:08:51;;;;;;;6.40;5.80;;;18.20;96.10;;;;;;5054811;28;20546;-62
2022/08/29 08:11:18;;;;;;;5.83;5.20;;;18.40;95.40;;;;;;5055211;28;20805;-62
2022/08/29 08:13:44;;;;;;;6.90;5.93;;;18.40;95.50;;;;;;5054847;28;20412;-62
2022/08/29 08:16:14;;;;;;;6.43;5.60;;;18.50;95.00;;;;;;5054872;28;20411;-63
2022/08/29 08:18:41;;;;;;;6.60;5.67;;;18.60;94.60;;;;;;5054538;28;20407;-63
2022/08/29 08:21:07;;;;;;;10.80;5.10;;;18.40;94.20;;;;;;5039578;28;20526;-62
2022/08/29 08:23:33;;;;;;;6.00;5.03;;;18.50;94.70;;;;;;5060274;28;20419;-62
2022/08/29 08:25:59;;;;;;;6.00;5.50;;;18.70;95.00;;;;;;5074193;28;20403;-62
2022/08/29 08:28:27;;;;;;;7.37;4.83;;;19.00;94.60;;;;;;5075079;28;20863;-62
2022/08/29 08:30:53;;;;;;;5.73;5.20;;;19.10;94.80;;;;;;5074156;28;20549;-62
2022/08/29 08:33:19;;;;;;;5.20;4.80;;;19.30;94.00;;;;;;5072978;28;20450;-62
2022/08/29 08:35:46;;;;;;;4.97;4.10;;;19.40;93.30;;;;;;5073343;28;20491;-62
2022/08/29 08:38:12;;;;;;;5.40;4.87;;;19.60;92.70;;;;;;5040344;28;20204;-62
2022/08/29 08:40:45;;;;;;;5.53;5.03;;;19.60;92.70;;;;;;5074587;28;20504;-62
2022/08/29 08:43:15;;;;;;;4.80;4.13;;;19.60;91.20;;;;;;5074525;28;20202;-62
2022/08/29 08:45:43;;;;;;;5.00;4.70;;;19.40;91.30;;;;;;5074325;28;20407;-63
2022/08/29 08:48:27;;;;;;;5.47;4.90;;;19.50;91.40;;;;;;5074725;28;20404;-62
2022/08/29 08:51:20;;;;;;;4.83;4.43;;;19.60;91.10;;;;;;5056852;28;20471;-63
2022/08/29 08:53:50;;;;;;;5.37;4.97;;;19.80;90.80;;;;;;5036024;28;20424;-63
2022/08/29 08:56:27;;;;;;;7.23;5.37;;;19.90;90.90;;;;;;5036839;28;20465;-62
2022/08/29 08:59:01;;;;;;;4.90;4.60;;;19.90;90.20;;;;;;5036140;28;20502;-63
2022/08/29 09:01:42;;;;;;;7.17;4.90;;;19.90;90.50;;;;;;5052606;28;20430;-63
2022/08/29 09:04:25;;;;;;;4.90;4.40;;;20.10;91.30;;;;;;5051108;28;20436;-62
2022/08/29 09:07:05;;;;;;;5.53;3.93;;;20.20;90.80;;;;;;5052824;28;20522;-63
2022/08/29 09:09:40;;;;;;;4.07;3.77;;;20.30;90.70;;;;;;5054364;28;20404;-62
2022/08/29 09:12:18;;;;;;;4.83;4.43;;;20.30;90.10;;;;;;5054419;28;20400;-63
2022/08/29 09:15:07;;;;;;;4.87;4.47;;;20.30;88.50;;;;;;5035757;28;20442;-62
2022/08/29 09:17:41;;;;;;;4.50;4.13;;;20.20;89.00;;;;;;5002836;28;20416;-62
2022/08/29 09:20:12;;;;;;;3.97;3.77;;;20.40;89.30;;;;;;5054279;28;20880;-62
2022/08/29 09:22:41;;;;;;;8.77;3.97;;;20.60;90.00;;;;;;5054125;28;20488;-63
2022/08/29 09:25:09;;;;;;;5.60;3.97;;;20.70;87.00;;;;;;5054023;28;20419;-62
2022/08/29 09:27:36;;;;;;;5.50;5.00;;;20.80;88.00;;;;;;5053778;28;20969;-63
2022/08/29 09:30:15;;;;;;;4.53;4.13;;;20.90;86.70;;;;;;5051365;28;20808;-63
2022/08/29 09:32:57;;;;;;;5.27;4.97;;;21.00;86.00;;;;;;5025327;28;20444;-62
2022/08/29 09:35:40;;;;;;;5.23;4.50;;;21.10;86.10;;;;;;5052105;28;20434;-62
2022/08/29 09:38:17;;;;;;;5.30;4.40;;;21.10;86.30;;;;;;5052890;28;20895;-62
2022/08/29 09:40:58;;;;;;;5.40;5.00;;;21.20;86.00;;;;;;5053106;28;20873;-64
2022/08/29 09:43:48;;;;;;;3.80;3.40;;;21.40;86.00;;;;;;5053751;28;20407;-63
2022/08/29 09:46:23;;;;;;;4.33;4.03;;;21.50;85.20;;;;;;5053630;28;20392;-63
2022/08/29 09:48:58;;;;;;;4.63;4.23;;;21.20;81.20;;;;;;5052814;28;20426;-62
2022/08/29 09:51:33;;;;;;;6.33;4.40;;;21.30;83.20;;;;;;5053459;28;20482;-63
2022/08/29 09:54:27;;;;;;;4.10;3.70;;;21.60;85.00;;;;;;5052942;28;20404;-63
2022/08/29 09:56:54;;;;;;;5.77;3.90;;;22.00;83.50;;;;;;5052505;28;20393;-63
2022/08/29 09:59:28;;;;;;;3.60;3.27;;;22.20;81.80;;;;;;5053379;28;20408;-63
2022/08/29 10:02:20;;;;;;;4.70;4.40;;;22.40;80.20;;;;;;5043814;28;20428;-63
2022/08/29 10:04:53;;;;;;;5.40;3.70;;;22.70;80.50;;;;;;5028967;28;20519;-63
2022/08/29 10:07:26;;;;;;;3.40;3.10;;;22.90;81.80;;;;;;5035477;28;20419;-63
2022/08/29 10:10:14;;;;;;;3.13;2.70;;;23.10;79.20;;;;;;5052623;28;20416;-63
2022/08/29 10:13:01;;;;;;;4.63;4.20;;;23.30;77.60;;;;;;5053253;28;20405;-63
2022/08/29 10:15:53;;;;;;;4.90;4.60;;;23.30;74.00;;;;;;5035343;28;20735;-62
2022/08/29 10:18:41;;;;;;;4.10;3.70;;;23.20;73.80;;;;;;5033885;28;20456;-63
2022/08/29 10:21:15;;;;;;;4.53;4.10;;;23.10;73.10;;;;;;5052996;28;20494;-63
2022/08/29 10:24:12;;;;;;;4.90;3.27;;;23.10;73.40;;;;;;5053025;28;20427;-63
2022/08/29 10:27:20;;;;;;;4.13;3.87;;;23.30;73.90;;;;;;5052937;28;20860;-63
2022/08/29 10:30:06;;;;;;;4.30;4.00;;;23.40;72.10;;;;;;5052272;28;20400;-64
2022/08/29 10:33:21;;;;;;;4.40;4.00;;;23.60;70.60;;;;;;5051684;28;20753;-63
2022/08/29 10:35:56;;;;;;;4.57;4.13;;;23.80;73.80;;;;;;4990776;28;20422;-63
2022/08/29 10:38:54;;;;;;;6.27;4.93;;;23.60;71.40;;;;;;4991184;28;20407;-63
2022/08/29 10:41:26;;;;;;;5.50;5.00;;;23.80;69.60;;;;;;5024494;28;20424;-63
2022/08/29 10:44:20;;;;;;;8.30;5.40;;;23.60;69.10;;;;;;5052333;28;20446;-63
2022/08/29 10:46:51;;;;;;;6.03;5.07;;;23.60;70.10;;;;;;5052553;28;20401;-69
2022/08/29 10:49:56;;;;;;;5.10;4.80;;;23.90;70.30;;;;;;5042364;28;20483;-63
2022/08/29 10:52:25;;;;;;;4.33;4.13;;;23.80;66.60;;;;;;5027701;28;20515;-69
2022/08/29 10:54:56;;;;;;;4.50;4.20;;;23.70;67.40;;;;;;5057730;28;20425;-68
2022/08/29 10:57:52;;;;;;;4.77;4.33;;;23.90;69.40;;;;;;5042000;28;20436;-70
2022/08/29 11:00:21;;;;;;;4.93;4.53;;;23.90;67.30;;;;;;5032346;28;20433;-68
2022/08/29 11:03:15;;;;;;;4.83;4.50;;;23.90;70.00;;;;;;5030421;28;20570;-68
2022/08/29 11:05:52;;;;;;;5.80;5.40;;;24.30;70.10;;;;;;5036869;28;20425;-68
2022/08/29 11:09:04;;;;;;;5.63;5.23;;;24.60;68.00;;;;;;5040937;28;20485;-68
2022/08/29 11:11:32;;;;;;;10.83;5.17;;;24.70;66.00;;;;;;5026477;28;20964;-68
2022/08/29 11:14:07;;;;;;;5.00;4.70;;;24.90;65.60;;;;;;5041288;28;20416;-69
2022/08/29 11:16:41;;;;;;;5.83;5.10;;;25.20;66.00;;;;;;5075093;28;20391;-68
2022/08/29 11:19:25;;;;;;;4.43;4.07;;;25.20;61.30;;;;;;5072531;28;21727;-68
2022/08/29 11:21:57;;;;;;;5.23;4.77;;;25.10;63.20;;;;;;5033824;28;20409;-70
2022/08/29 11:24:26;;;;;;;4.67;4.27;;;25.30;63.40;;;;;;5050048;28;20504;-68
2022/08/29 11:27:01;;;;;;;4.90;4.50;;;25.30;63.80;;;;;;5052584;28;20569;-69
2022/08/29 11:29:46;;;;;;;4.90;4.50;;;25.30;64.00;;;;;;5035830;28;20474;-68
2022/08/29 11:32:49;;;;;;;4.63;4.03;;;25.00;62.70;;;;;;5052670;28;21007;-68
2022/08/29 11:35:40;;;;;;;4.20;3.90;;;25.00;64.30;;;;;;5067507;28;20446;-68
2022/08/29 11:38:36;;;;;;;4.07;3.77;;;25.10;65.60;;;;;;5068030;28;20507;-68
2022/08/29 11:41:25;;;;;;;4.60;4.13;;;25.20;65.40;;;;;;5036611;28;20427;-69
2022/08/29 11:43:56;;;;;;;4.93;4.43;;;25.30;61.60;;;;;;5055435;28;20416;-68
2022/08/29 11:46:44;;;;;;;4.53;4.13;;;25.20;61.10;;;;;;5048764;28;20919;-68
2022/08/29 11:49:32;;;;;;;4.90;4.50;;;25.20;62.60;;;;;;4987284;28;20909;-68
2022/08/29 11:52:07;;;;;;;4.70;4.40;;;25.30;61.30;;;;;;5040748;28;20456;-68
2022/08/29 11:54:36;;;;;;;5.83;4.43;;;25.60;61.50;;;;;;5057755;28;20452;-68
2022/08/29 11:57:04;;;;;;;5.33;4.50;;;25.70;61.00;;;;;;5039556;28;20442;-68
2022/08/29 11:59:54;;;;;;;4.50;4.20;;;25.90;63.60;;;;;;5036909;28;20429;-68
2022/08/29 12:02:29;;;;;;;5.37;4.87;;;26.10;59.30;;;;;;5024450;28;20435;-68
2022/08/29 12:05:06;;;;;;;5.70;5.20;;;26.20;59.40;;;;;;5054943;28;20446;-69
2022/08/29 12:07:50;;;;;;;4.10;3.80;;;26.20;61.80;;;;;;5059885;28;20418;-68
2022/08/29 12:10:19;;;;;;;4.63;4.33;;;26.20;58.70;;;;;;5034805;28;20822;-69
2022/08/29 12:13:05;;;;;;;7.00;5.07;;;26.20;60.00;;;;;;5040479;28;20432;-68
2022/08/29 12:15:31;;;;;;;4.40;4.10;;;26.20;58.50;;;;;;5066418;28;20427;-68
2022/08/29 12:18:12;;;;;;;4.90;4.40;;;26.20;60.90;;;;;;5042782;28;20533;-69
2022/08/29 12:20:49;;;;;;;5.50;5.10;;;26.30;59.40;;;;;;5053905;28;20181;-68
2022/08/29 12:23:29;;;;;;;4.80;4.50;;;26.50;60.10;;;;;;5053921;28;20485;-68
2022/08/29 12:26:24;;;;;;;5.13;4.77;;;26.50;60.00;;;;;;5054499;28;20416;-68
2022/08/29 12:29:20;;;;;;;6.00;5.30;;;26.40;56.80;;;;;;5053294;28;20739;-68
2022/08/29 12:32:05;;;;;;;5.97;5.57;;;26.40;57.30;;;;;;5026670;28;20872;-72
2022/08/29 12:34:52;;;;;;;5.33;4.90;;;26.20;55.70;;;;;;5050773;28;20419;-68
2022/08/29 12:37:26;;;;;;;6.17;5.63;;;25.90;56.90;;;;;;5073454;28;20400;-68
2022/08/29 12:40:40;;;;;;;7.30;6.43;;;25.90;59.30;;;;;;5055444;28;20418;-68
2022/08/29 12:43:43;;;;;;;5.83;4.83;;;25.90;58.30;;;;;;4970131;28;20744;-68
2022/08/29 12:46:29;;;;;;;7.10;6.50;;;25.90;57.70;;;;;;4991166;28;20517;-68
2022/08/29 12:49:14;;;;;;;4.67;4.27;;;26.00;57.90;;;;;;5006550;28;20414;-68
2022/08/29 12:51:41;;;;;;;6.60;6.10;;;26.10;58.70;;;;;;5015144;28;20465;-68
2022/08/29 12:54:10;;;;;;;4.87;4.47;;;26.20;59.20;;;;;;5013824;28;20437;-68
2022/08/29 12:56:42;;;;;;;5.17;4.77;;;26.20;58.30;;;;;;5030942;28;20500;-68
2022/08/29 12:59:18;;;;;;;6.27;5.77;;;26.20;59.30;;;;;;5030676;28;20429;-68
2022/08/29 13:01:50;;;;;;;8.30;6.30;;;26.30;59.20;;;;;;5016326;28;20465;-68
2022/08/29 13:04:21;;;;;;;6.10;5.57;;;26.20;59.10;;;;;;5013018;28;20556;-68
2022/08/29 13:06:51;;;;;;;11.60;8.93;;;26.20;60.40;;;;;;5029254;28;20484;-71
2022/08/29 13:09:42;;;;;;;11.03;8.10;;;26.20;59.70;;;;;;4972080;28;20768;-68
2022/08/29 13:12:35;;;;;;;14.80;9.83;;;26.10;60.50;;;;;;4963518;28;21011;-67